createdAt,value
2023-02-11T00:02:01.621Z,24.67
2023-02-11T00:04:30.021Z,23.83
2023-02-11T00:06:58.533Z,24.73
2023-02-11T00:09:27.036Z,26.15
2023-02-11T00:11:55.356Z,31.42
2023-02-11T00:14:23.774Z,28.08
2023-02-11T00:16:53.623Z,25.48
2023-02-11T00:19:22.051Z,26.25
2023-02-11T00:21:50.412Z,24.02
2023-02-11T00:24:18.745Z,25.15
2023-02-11T00:26:47.106Z,26.10
2023-02-11T00:29:15.438Z,26.52
2023-02-11T00:31:43.847Z,26.60
2023-02-11T00:34:13.803Z,24.38
2023-02-11T00:36:42.623Z,26.00
2023-02-11T00:39:11.094Z,25.55
2023-02-11T00:41:39.458Z,24.23
2023-02-11T00:44:08.446Z,25.40
2023-02-11T00:46:36.919Z,26.73
2023-02-11T00:49:05.570Z,27.08
2023-02-11T00:51:35.598Z,30.55
2023-02-11T00:54:03.992Z,24.05
2023-02-11T00:56:32.812Z,24.38
2023-02-11T00:59:01.236Z,27.15
2023-02-11T01:01:29.668Z,22.83
2023-02-11T01:03:58.090Z,26.80
2023-02-11T01:06:26.605Z,24.33
2023-02-11T01:08:56.384Z,26.73
2023-02-11T01:11:24.978Z,26.63
2023-02-11T01:13:53.497Z,26.85
2023-02-11T01:16:23.334Z,25.67
2023-02-11T01:18:51.743Z,23.98
2023-02-11T01:21:20.298Z,26.25
2023-02-11T01:23:48.701Z,24.52
2023-02-11T01:26:18.613Z,24.15
2023-02-11T01:28:47.163Z,25.23
2023-02-11T01:31:16.157Z,25.08
2023-02-11T01:33:44.827Z,22.83
2023-02-11T01:36:13.851Z,25.10
2023-02-11T01:38:43.827Z,27.48
2023-02-11T01:41:15.221Z,25.60
2023-02-11T01:43:47.338Z,23.63
2023-02-11T01:46:33.800Z,24.73
2023-02-11T01:49:07.402Z,26.58
2023-02-11T01:51:40.666Z,26.55
2023-02-11T01:54:29.752Z,23.98
2023-02-11T01:57:18.311Z,26.38
2023-02-11T01:59:55.342Z,26.30
2023-02-11T02:02:28.590Z,25.45
2023-02-11T02:05:02.225Z,24.60
2023-02-11T02:10:08.278Z,22.75
2023-02-11T02:12:36.684Z,24.15
2023-02-11T02:15:27.803Z,25.42
2023-02-11T02:18:01.927Z,26.40
2023-02-11T02:21:04.216Z,23.08
2023-02-11T02:23:59.232Z,24.02
2023-02-11T02:26:55.687Z,23.15
2023-02-11T02:29:57.893Z,27.30
2023-02-11T02:32:48.674Z,22.38
2023-02-11T02:35:28.120Z,23.83
2023-02-11T02:38:03.296Z,24.30
2023-02-11T02:40:36.949Z,24.30
2023-02-11T02:45:34.842Z,24.10
2023-02-11T02:48:04.829Z,24.85
2023-02-11T02:50:37.772Z,22.77
2023-02-11T02:53:20.183Z,24.75
2023-02-11T02:56:01.764Z,25.42
2023-02-11T02:59:09.454Z,23.33
2023-02-11T03:01:47.134Z,25.98
2023-02-11T03:04:25.332Z,24.13
2023-02-11T03:06:59.335Z,24.08
2023-02-11T03:09:33.109Z,24.05
2023-02-11T03:12:04.046Z,27.70
2023-02-11T03:14:33.813Z,25.13
2023-02-11T03:17:06.176Z,25.80
2023-02-11T03:19:39.842Z,21.17
2023-02-11T03:24:40.919Z,23.23
2023-02-11T03:27:17.811Z,21.73
2023-02-11T03:29:54.725Z,25.58
2023-02-11T03:32:28.677Z,26.58
2023-02-11T03:35:02.396Z,24.23
2023-02-11T03:40:04.803Z,22.85
2023-02-11T03:42:37.382Z,22.85
2023-02-11T03:45:09.916Z,23.52
2023-02-11T03:47:43.171Z,25.08
2023-02-11T03:50:15.953Z,21.25
2023-02-11T03:52:45.449Z,23.17
2023-02-11T03:55:20.844Z,21.73
2023-02-11T03:57:49.691Z,23.83
2023-02-11T04:00:18.179Z,20.13
2023-02-11T04:02:46.690Z,23.92
2023-02-11T04:05:17.654Z,25.13
2023-02-11T04:07:46.030Z,23.02
2023-02-11T04:10:14.574Z,20.88
2023-02-11T04:12:43.473Z,21.45
2023-02-11T04:15:11.880Z,25.40
2023-02-11T04:17:41.258Z,24.38
2023-02-11T04:20:10.534Z,22.55
2023-02-11T04:22:40.637Z,24.17
2023-02-11T04:25:10.716Z,24.23
2023-02-11T04:27:39.450Z,22.92
2023-02-11T04:30:09.157Z,22.73
2023-02-11T04:32:37.590Z,25.20
2023-02-11T04:35:06.786Z,21.95
2023-02-11T04:37:35.836Z,22.88
2023-02-11T04:40:06.524Z,22.25
2023-02-11T04:42:34.871Z,22.77
2023-02-11T04:45:03.228Z,26.02
2023-02-11T04:47:31.704Z,23.63
2023-02-11T04:50:00.038Z,25.75
2023-02-11T04:52:28.428Z,27.70
2023-02-11T04:54:56.817Z,22.95
2023-02-11T04:57:26.562Z,23.05
2023-02-11T04:59:54.960Z,25.70
2023-02-11T05:02:23.391Z,27.63
2023-02-11T05:04:51.826Z,24.58
2023-02-11T05:07:20.160Z,25.95
2023-02-11T05:09:48.503Z,27.40
2023-02-11T05:12:17.167Z,25.23
2023-02-11T05:14:46.912Z,22.75
2023-02-11T05:17:15.362Z,23.80
2023-02-11T05:19:44.097Z,22.10
2023-02-11T05:22:12.534Z,22.88
2023-02-11T05:24:41.039Z,22.25
2023-02-11T05:27:09.366Z,21.55
2023-02-11T05:29:38.114Z,23.88
2023-02-11T05:32:09.329Z,23.80
2023-02-11T05:34:38.056Z,22.15
2023-02-11T05:37:06.667Z,24.60
2023-02-11T05:39:35.095Z,21.75
2023-02-11T05:42:03.514Z,24.02
2023-02-11T05:44:31.902Z,24.17
2023-02-11T05:47:00.328Z,24.45
2023-02-11T05:49:30.068Z,25.52
2023-02-11T05:51:58.641Z,22.95
2023-02-11T05:54:26.940Z,22.73
2023-02-11T05:56:55.320Z,22.70
2023-02-11T05:59:23.587Z,22.65
2023-02-11T06:01:51.987Z,24.85
2023-02-11T06:04:20.318Z,22.83
2023-02-11T06:06:50.586Z,23.95
2023-02-11T06:09:18.972Z,24.95
2023-02-11T06:11:47.628Z,27.20
2023-02-11T06:14:16.020Z,24.05
2023-02-11T06:16:44.407Z,23.77
2023-02-11T06:19:12.784Z,21.85
2023-02-11T06:21:44.238Z,24.92
2023-02-11T06:24:14.439Z,23.85
2023-02-11T06:26:42.974Z,22.65
2023-02-11T06:29:11.285Z,22.65
2023-02-11T06:31:40.503Z,22.05
2023-02-11T06:34:09.484Z,25.20
2023-02-11T06:36:39.819Z,24.42
2023-02-11T06:39:08.832Z,21.65
2023-02-11T06:41:38.666Z,23.98
2023-02-11T06:44:07.498Z,21.83
2023-02-11T06:46:37.290Z,24.77
2023-02-11T06:49:06.827Z,25.00
2023-02-11T06:51:35.550Z,23.35
2023-02-11T06:54:03.815Z,24.60
2023-02-11T06:56:32.223Z,23.75
2023-02-11T06:59:02.606Z,23.45
2023-02-11T07:01:31.157Z,24.02
2023-02-11T07:03:59.614Z,22.00
2023-02-11T07:06:29.114Z,24.13
2023-02-11T07:08:57.626Z,26.02
2023-02-11T07:11:28.350Z,25.92
2023-02-11T07:14:00.831Z,23.58
2023-02-11T07:16:30.997Z,25.30
2023-02-11T07:18:59.650Z,23.00
2023-02-11T07:21:28.283Z,23.13
2023-02-11T07:23:56.715Z,26.55
2023-02-11T07:26:26.436Z,23.50
2023-02-11T07:28:55.060Z,27.33
2023-02-11T07:31:25.526Z,24.83
2023-02-11T07:33:56.385Z,27.77
2023-02-11T07:36:25.035Z,29.13
2023-02-11T07:38:53.545Z,27.85
2023-02-11T07:41:24.582Z,29.60
2023-02-11T07:43:52.928Z,26.80
2023-02-11T07:46:23.251Z,28.20
2023-02-11T07:48:52.090Z,28.88
2023-02-11T07:51:24.477Z,27.73
2023-02-11T07:53:53.605Z,25.95
2023-02-11T07:56:23.999Z,28.02
2023-02-11T07:58:52.693Z,28.88
2023-02-11T08:01:25.445Z,27.40
2023-02-11T08:03:54.427Z,28.58
2023-02-11T08:06:25.641Z,28.27
2023-02-11T08:08:54.528Z,29.67
2023-02-11T08:11:24.848Z,27.95
2023-02-11T08:13:54.257Z,26.98
2023-02-11T08:16:25.024Z,25.85
2023-02-11T08:18:54.448Z,26.27
2023-02-11T08:21:24.189Z,30.90
2023-02-11T08:23:52.873Z,29.27
2023-02-11T08:26:23.753Z,24.35
2023-02-11T08:28:53.953Z,25.83
2023-02-11T08:31:25.026Z,25.80
2023-02-11T08:33:54.966Z,24.63
2023-02-11T08:36:26.470Z,28.45
2023-02-11T08:39:08.596Z,28.17
2023-02-11T08:41:46.105Z,32.17
2023-02-11T08:44:15.446Z,30.65
2023-02-11T08:46:43.982Z,29.30
2023-02-11T08:49:13.180Z,27.83
2023-02-11T08:51:43.574Z,29.60
2023-02-11T08:54:12.119Z,28.45
2023-02-11T08:56:41.252Z,28.67
2023-02-11T08:59:11.059Z,30.52
2023-02-11T09:01:39.620Z,29.40
2023-02-11T09:04:08.234Z,27.58
2023-02-11T09:06:36.706Z,27.67
2023-02-11T09:09:07.392Z,29.85
2023-02-11T09:11:37.497Z,27.33
2023-02-11T09:14:05.999Z,30.63
2023-02-11T09:16:36.149Z,25.17
2023-02-11T09:19:06.736Z,24.98
2023-02-11T09:21:35.850Z,24.55
2023-02-11T09:24:07.804Z,24.75
2023-02-11T09:26:38.403Z,26.05
2023-02-11T09:29:08.171Z,25.73
2023-02-11T09:31:37.462Z,24.98
2023-02-11T09:34:08.087Z,23.25
2023-02-11T09:36:38.822Z,23.00
2023-02-11T09:39:15.121Z,21.50
2023-02-11T09:42:04.920Z,22.73
2023-02-11T09:44:36.424Z,21.85
2023-02-11T09:47:08.103Z,21.58
2023-02-11T09:49:42.559Z,21.35
2023-02-11T09:52:23.367Z,20.92
2023-02-11T09:54:57.065Z,22.00
2023-02-11T09:59:58.573Z,21.10
2023-02-11T10:10:26.527Z,21.88
2023-02-11T10:13:07.935Z,18.63
2023-02-11T10:15:46.527Z,22.73
2023-02-11T10:18:52.948Z,23.88
2023-02-11T10:21:30.493Z,21.70
2023-02-11T10:24:04.317Z,19.55
2023-02-11T10:26:37.981Z,19.92
2023-02-11T10:31:46.984Z,18.52
2023-02-11T10:34:17.082Z,17.50
2023-02-11T10:36:46.674Z,17.27
2023-02-11T10:39:18.079Z,17.17
2023-02-11T10:41:52.259Z,16.85
2023-02-11T10:44:32.476Z,15.85
2023-02-11T10:47:04.418Z,17.70
2023-02-11T10:49:38.718Z,16.77
2023-02-11T10:52:31.855Z,15.73
2023-02-11T10:55:03.238Z,15.20
2023-02-11T10:57:37.995Z,14.60
2023-02-11T11:00:22.473Z,16.85
2023-02-11T11:02:56.995Z,15.93
2023-02-11T11:05:31.869Z,17.00
2023-02-11T11:08:01.972Z,15.98
2023-02-11T11:10:37.148Z,17.58
2023-02-11T11:13:07.634Z,14.88
2023-02-11T11:15:37.535Z,15.75
2023-02-11T11:18:22.553Z,16.30
2023-02-11T11:21:03.596Z,18.70
2023-02-11T11:23:33.508Z,18.85
2023-02-11T11:26:07.179Z,18.05
2023-02-11T11:31:18.660Z,18.33
2023-02-11T11:33:49.613Z,18.00
2023-02-11T11:36:22.713Z,17.42
2023-02-11T11:38:56.439Z,17.77
2023-02-11T11:44:01.090Z,20.17
2023-02-11T11:49:09.398Z,17.27
2023-02-11T11:51:41.406Z,16.98
2023-02-11T11:54:15.052Z,15.07
2023-02-11T11:56:52.342Z,16.27
2023-02-11T11:59:23.630Z,19.00
2023-02-11T12:02:15.493Z,18.23
2023-02-11T12:05:01.836Z,18.48
2023-02-11T12:07:50.735Z,15.63
2023-02-11T12:10:33.006Z,16.48
2023-02-11T12:13:17.290Z,18.65
2023-02-11T12:15:56.923Z,18.63
2023-02-11T12:18:45.503Z,15.77
2023-02-11T12:21:29.735Z,19.10
2023-02-11T12:24:17.505Z,16.83
2023-02-11T12:26:51.422Z,14.77
2023-02-11T12:29:33.641Z,15.68
2023-02-11T12:32:27.585Z,16.60
2023-02-11T12:35:23.073Z,18.02
2023-02-11T12:38:09.104Z,15.57
2023-02-11T12:40:46.557Z,20.00
2023-02-11T12:43:24.063Z,16.77
2023-02-11T12:46:39.981Z,16.13
2023-02-11T12:49:38.905Z,15.77
2023-02-11T12:52:24.659Z,15.57
2023-02-11T12:55:00.235Z,18.60
2023-02-11T12:57:32.539Z,17.85
2023-02-11T13:00:07.769Z,15.27
2023-02-11T13:02:45.720Z,15.88
2023-02-11T13:05:24.238Z,13.52
2023-02-11T13:07:57.317Z,15.20
2023-02-11T13:10:31.354Z,13.80
2023-02-11T13:13:20.180Z,14.15
2023-02-11T13:15:52.023Z,13.40
2023-02-11T13:18:41.528Z,15.85
2023-02-11T13:21:30.782Z,11.32
2023-02-11T13:24:11.183Z,14.70
2023-02-11T13:26:49.052Z,14.02
2023-02-11T13:29:28.952Z,12.95
2023-02-11T13:31:58.588Z,13.93
2023-02-11T13:34:48.334Z,11.50
2023-02-11T13:37:24.299Z,14.02
2023-02-11T13:40:03.199Z,10.98
2023-02-11T13:42:33.903Z,15.38
2023-02-11T13:45:02.735Z,14.27
2023-02-11T13:47:34.600Z,14.13
2023-02-11T13:50:07.092Z,14.57
2023-02-11T13:52:40.329Z,12.13
2023-02-11T13:55:21.696Z,13.55
2023-02-11T13:58:19.031Z,13.77
2023-02-11T14:00:50.484Z,11.50
2023-02-11T14:03:57.471Z,13.18
2023-02-11T14:06:46.254Z,12.55
2023-02-11T14:09:39.252Z,13.45
2023-02-11T14:12:37.829Z,13.52
2023-02-11T14:15:26.713Z,14.18
2023-02-11T14:17:55.211Z,15.30
2023-02-11T14:20:46.661Z,13.80
2023-02-11T14:23:27.668Z,16.90
2023-02-11T14:26:24.008Z,16.40
2023-02-11T14:28:57.785Z,14.95
2023-02-11T14:34:16.888Z,14.43
2023-02-11T14:37:18.776Z,15.23
2023-02-11T14:39:58.474Z,15.65
2023-02-11T14:42:31.179Z,17.33
2023-02-11T14:45:04.592Z,16.35
2023-02-11T14:47:42.012Z,16.95
2023-02-11T14:50:19.288Z,14.20
2023-02-11T14:52:48.531Z,16.08
2023-02-11T14:55:27.157Z,17.35
2023-02-11T14:58:09.508Z,16.73
2023-02-11T15:00:37.940Z,14.32
2023-02-11T15:03:06.284Z,12.82
2023-02-11T15:05:35.151Z,16.45
2023-02-11T15:08:07.926Z,14.63
2023-02-11T15:10:43.740Z,13.40
2023-02-11T15:13:21.669Z,13.45
2023-02-11T15:15:54.773Z,13.27
2023-02-11T15:18:26.876Z,13.18
2023-02-11T15:20:55.404Z,11.93
2023-02-11T15:23:27.579Z,12.48
2023-02-11T15:25:56.674Z,13.73
2023-02-11T15:28:30.150Z,12.77
2023-02-11T15:31:00.551Z,13.10
2023-02-11T15:33:30.537Z,10.98
2023-02-11T15:35:59.885Z,10.50
2023-02-11T15:38:29.954Z,12.25
2023-02-11T15:41:01.024Z,10.52
2023-02-11T15:43:44.623Z,8.27
2023-02-11T15:46:15.864Z,8.65
2023-02-11T15:48:48.763Z,10.82
2023-02-11T15:51:22.176Z,10.23
2023-02-11T15:53:56.952Z,10.05
2023-02-11T15:56:29.898Z,8.85
2023-02-11T15:59:02.032Z,9.80
2023-02-11T16:01:34.047Z,8.25
2023-02-11T16:04:04.100Z,9.77
2023-02-11T16:06:38.482Z,7.68
2023-02-11T16:09:23.087Z,6.38
2023-02-11T16:12:03.728Z,7.25
2023-02-11T16:14:37.562Z,7.68
2023-02-11T16:17:09.640Z,8.32
2023-02-11T16:19:44.279Z,7.70
2023-02-11T16:22:17.317Z,9.65
2023-02-11T16:24:49.756Z,6.28
2023-02-11T16:27:23.477Z,8.70
2023-02-11T16:32:23.618Z,7.78
2023-02-11T16:34:53.017Z,8.52
2023-02-11T16:37:21.405Z,6.00
2023-02-11T16:39:49.686Z,6.63
2023-02-11T16:42:18.164Z,5.82
2023-02-11T16:44:46.448Z,3.95
2023-02-11T16:47:22.106Z,3.50
2023-02-11T16:49:50.900Z,3.10
2023-02-11T16:52:21.372Z,3.22
2023-02-11T16:54:49.924Z,2.88
2023-02-11T16:57:21.115Z,2.90
2023-02-11T16:59:50.171Z,4.50
2023-02-11T17:02:24.138Z,4.47
2023-02-11T17:04:53.684Z,5.10
2023-02-11T17:07:22.569Z,3.17
2023-02-11T17:09:52.097Z,4.25
2023-02-11T17:12:20.560Z,4.38
2023-02-11T17:14:49.021Z,6.43
2023-02-11T17:17:17.709Z,2.97
2023-02-11T17:19:49.894Z,3.42
2023-02-11T17:22:19.118Z,4.05
2023-02-11T17:24:47.371Z,3.97
2023-02-11T17:27:17.466Z,3.88
2023-02-11T17:29:46.765Z,4.95
2023-02-11T17:32:15.901Z,4.00
2023-02-11T17:34:46.583Z,3.75
2023-02-11T17:37:17.160Z,4.10
2023-02-11T17:39:45.976Z,3.15
2023-02-11T17:42:15.125Z,3.40
2023-02-11T17:44:46.206Z,4.03
2023-02-11T17:47:16.113Z,5.68
2023-02-11T17:49:45.189Z,3.65
2023-02-11T17:52:16.863Z,3.10
2023-02-11T17:54:47.787Z,5.93
2023-02-11T17:57:16.522Z,7.47
2023-02-11T17:59:45.021Z,5.05
2023-02-11T18:02:14.182Z,7.13
2023-02-11T18:04:44.654Z,3.60
2023-02-11T18:07:14.395Z,7.97
2023-02-11T18:09:46.095Z,7.63
2023-02-11T18:12:15.150Z,3.85
2023-02-11T18:14:46.419Z,2.72
2023-02-11T18:17:15.688Z,3.47
2023-02-11T18:19:44.579Z,3.28
2023-02-11T18:22:14.504Z,3.10
2023-02-11T18:24:46.224Z,3.40
2023-02-11T18:27:15.243Z,3.20
2023-02-11T18:29:43.524Z,3.70
2023-02-11T18:32:12.331Z,3.80
2023-02-11T18:34:41.840Z,4.15
2023-02-11T18:37:11.702Z,3.30
2023-02-11T18:39:39.951Z,3.08
2023-02-11T18:42:09.948Z,3.53
2023-02-11T18:44:38.630Z,3.85
2023-02-11T18:47:06.979Z,3.88
2023-02-11T18:49:36.305Z,4.38
2023-02-11T18:52:04.875Z,4.30
2023-02-11T18:54:33.126Z,4.55
2023-02-11T18:57:01.672Z,6.10
2023-02-11T18:59:31.943Z,5.18
2023-02-11T19:02:00.329Z,7.25
2023-02-11T19:04:28.795Z,7.75
2023-02-11T19:06:57.310Z,6.80
2023-02-11T19:09:25.921Z,7.03
2023-02-11T19:11:55.734Z,7.70
2023-02-11T19:14:25.742Z,9.70
2023-02-11T19:16:57.478Z,5.60
2023-02-11T19:19:28.156Z,5.25
2023-02-11T19:21:57.538Z,7.25
2023-02-11T19:24:27.260Z,5.65
2023-02-11T19:26:58.247Z,7.32
2023-02-11T19:29:29.088Z,6.95
2023-02-11T19:31:59.465Z,5.88
2023-02-11T19:34:28.540Z,7.53
2023-02-11T19:36:59.721Z,7.53
2023-02-11T19:39:28.688Z,7.63
2023-02-11T19:41:57.658Z,7.55
2023-02-11T19:44:26.105Z,8.45
2023-02-11T19:46:54.923Z,6.95
2023-02-11T19:49:26.391Z,5.50
2023-02-11T19:51:57.508Z,8.40
2023-02-11T19:54:27.510Z,8.15
2023-02-11T19:56:56.100Z,8.00
2023-02-11T19:59:24.608Z,7.32
2023-02-11T20:01:54.490Z,9.27
2023-02-11T20:04:27.030Z,7.95
2023-02-11T20:06:56.266Z,8.48
2023-02-11T20:09:26.722Z,8.98
2023-02-11T20:11:59.374Z,9.32
2023-02-11T20:14:28.211Z,9.32
2023-02-11T20:16:57.128Z,10.07
2023-02-11T20:19:30.458Z,10.55
2023-02-11T20:21:59.216Z,11.05
2023-02-11T20:24:28.308Z,11.43
2023-02-11T20:26:57.277Z,11.48
2023-02-11T20:29:27.777Z,12.10
2023-02-11T20:31:56.592Z,11.82
2023-02-11T20:34:26.500Z,13.73
2023-02-11T20:36:56.147Z,11.02
2023-02-11T20:39:25.845Z,11.32
2023-02-11T20:41:55.210Z,11.23
2023-02-11T20:44:24.244Z,10.77
2023-02-11T20:46:54.643Z,10.55
2023-02-11T20:49:28.654Z,9.65
2023-02-11T20:51:58.616Z,11.40
2023-02-11T20:54:28.203Z,9.98
2023-02-11T20:56:58.936Z,8.85
2023-02-11T20:59:27.735Z,10.60
2023-02-11T21:01:58.402Z,8.90
2023-02-11T21:04:30.246Z,9.48
2023-02-11T21:07:01.275Z,9.68
2023-02-11T21:09:33.997Z,9.35
2023-02-11T21:12:04.478Z,10.40
2023-02-11T21:14:34.696Z,10.20
2023-02-11T21:17:03.998Z,9.05
2023-02-11T21:19:33.917Z,9.90
2023-02-11T21:22:03.402Z,9.15
2023-02-11T21:24:32.557Z,9.02
2023-02-11T21:27:01.132Z,12.73
2023-02-11T21:29:30.268Z,9.63
2023-02-11T21:31:59.303Z,7.53
2023-02-11T21:34:27.734Z,9.85
2023-02-11T21:36:59.435Z,10.98
2023-02-11T21:39:29.147Z,9.02
2023-02-11T21:41:58.640Z,7.10
2023-02-11T21:44:27.956Z,10.23
2023-02-11T21:46:56.799Z,8.52
2023-02-11T21:49:26.480Z,11.73
2023-02-11T21:51:57.168Z,7.85
2023-02-11T21:54:29.288Z,7.57
2023-02-11T21:56:57.654Z,8.52
2023-02-11T21:59:26.921Z,8.05
2023-02-11T22:01:55.228Z,7.18
2023-02-11T22:04:24.656Z,7.05
2023-02-11T22:06:54.351Z,7.80
2023-02-11T22:09:25.777Z,6.55
2023-02-11T22:11:57.131Z,7.50
2023-02-11T22:14:26.689Z,7.50
2023-02-11T22:16:56.749Z,6.68
2023-02-11T22:19:27.542Z,8.38
2023-02-11T22:21:57.356Z,6.45
2023-02-11T22:24:30.162Z,6.10
2023-02-11T22:27:00.104Z,6.83
2023-02-11T22:29:29.103Z,9.68
2023-02-11T22:31:57.626Z,6.55
2023-02-11T22:34:26.000Z,7.72
2023-02-11T22:36:54.376Z,9.52
2023-02-11T22:39:22.868Z,7.80
2023-02-11T22:41:54.644Z,7.50
2023-02-11T22:44:22.936Z,8.93
2023-02-11T22:46:51.581Z,7.10
2023-02-11T22:49:21.451Z,7.57
2023-02-11T22:51:50.361Z,6.50
2023-02-11T22:54:20.170Z,6.65
2023-02-11T22:56:53.413Z,5.80
2023-02-11T22:59:22.633Z,6.15
2023-02-11T23:01:51.217Z,6.50
2023-02-11T23:04:20.987Z,4.80
2023-02-11T23:06:50.133Z,5.70
2023-02-11T23:09:18.547Z,4.95
2023-02-11T23:11:48.661Z,4.90
2023-02-11T23:14:18.325Z,4.97
2023-02-11T23:16:46.802Z,5.03
2023-02-11T23:19:15.081Z,6.07
2023-02-11T23:21:43.612Z,4.95
2023-02-11T23:24:16.585Z,4.80
2023-02-11T23:26:45.738Z,4.95
2023-02-11T23:29:14.587Z,5.72
2023-02-11T23:31:46.613Z,4.53
2023-02-11T23:34:17.427Z,4.53
2023-02-11T23:36:45.865Z,5.82
2023-02-11T23:39:16.128Z,4.63
2023-02-11T23:41:44.644Z,6.00
2023-02-11T23:44:13.176Z,5.20
2023-02-11T23:46:41.470Z,4.15
2023-02-11T23:49:11.233Z,5.10
2023-02-11T23:51:39.533Z,5.45
2023-02-11T23:54:07.822Z,4.85
2023-02-11T23:56:37.106Z,4.45
2023-02-11T23:59:05.462Z,5.05
